createdAt,value
2018-09-25T00:00:08.026Z,75.54
2018-09-25T00:10:18.666Z,77.74
2018-09-25T00:20:14.049Z,78.50
2018-09-25T00:23:20.420Z,76.13
2018-09-25T00:26:26.001Z,77.60
2018-09-25T00:33:04.264Z,78.61
2018-09-25T00:36:11.030Z,78.71
2018-09-25T00:39:18.664Z,76.39
2018-09-25T00:45:56.934Z,78.15
2018-09-25T00:49:02.503Z,78.45
2018-09-25T00:52:12.280Z,78.37
2018-09-25T00:55:18.229Z,76.19
2018-09-25T00:58:24.174Z,77.50
2018-09-25T01:04:57.963Z,78.41
2018-09-25T01:08:03.701Z,78.22
2018-09-25T01:24:54.842Z,78.78
2018-09-25T01:28:01.688Z,78.42
2018-09-25T01:31:08.395Z,78.20
2018-09-25T01:41:03.067Z,76.02
2018-09-25T01:50:58.415Z,76.22
2018-09-25T01:54:04.243Z,74.20
2018-09-25T01:57:09.855Z,76.03
2018-09-25T02:00:23.842Z,76.31
2018-09-25T02:06:58.121Z,77.37
2018-09-25T02:20:17.754Z,77.23
2018-09-25T02:26:51.851Z,78.05
2018-09-25T02:29:59.107Z,78.18
2018-09-25T02:33:06.876Z,75.93
2018-09-25T02:43:04.219Z,78.12
2018-09-25T02:46:11.063Z,78.34
2018-09-25T03:03:01.093Z,79.28
2018-09-25T03:09:34.018Z,79.50
2018-09-25T03:16:05.734Z,79.37
2018-09-25T03:19:15.163Z,77.26
2018-09-25T03:22:22.865Z,78.65
2018-09-25T03:42:31.573Z,77.86
2018-09-25T03:45:38.465Z,78.89
2018-09-25T03:52:10.550Z,79.50
2018-09-25T04:05:45.921Z,80.08
2018-09-25T04:08:52.285Z,77.71
2018-09-25T04:11:58.240Z,79.14
2018-09-25T04:21:56.766Z,80.49
2018-09-25T04:25:04.135Z,80.42
2018-09-25T04:28:09.515Z,80.59
2018-09-25T04:31:15.730Z,80.68
2018-09-25T04:34:21.114Z,81.15
2018-09-25T04:41:07.540Z,78.88
2018-09-25T04:44:14.403Z,80.00
2018-09-25T04:47:21.186Z,80.57
2018-09-25T04:50:27.630Z,80.94
2018-09-25T04:53:33.201Z,81.31
2018-09-25T04:56:39.156Z,81.55
2018-09-25T05:06:33.759Z,82.44
2018-09-25T05:09:39.624Z,82.43
2018-09-25T05:12:46.719Z,80.84
2018-09-25T05:19:16.772Z,79.94
2018-09-25T05:22:22.627Z,78.99
2018-09-25T05:25:29.536Z,78.36
2018-09-25T05:28:34.844Z,79.87
2018-09-25T05:35:06.350Z,78.88
2018-09-25T05:41:36.876Z,80.87
2018-09-25T05:44:43.533Z,81.24
2018-09-25T05:51:14.462Z,81.21
2018-09-25T05:54:21.159Z,81.34
2018-09-25T05:57:28.360Z,81.36
2018-09-25T06:10:47.787Z,81.13
2018-09-25T06:13:54.756Z,81.34
2018-09-25T06:17:01.304Z,81.66
2018-09-25T06:20:08.052Z,81.62
2018-09-25T06:26:38.507Z,77.51
2018-09-25T06:29:44.325Z,78.83
2018-09-25T06:36:17.700Z,75.91
2018-09-25T06:39:23.413Z,76.99
2018-09-25T06:42:30.366Z,74.19
2018-09-25T06:45:35.795Z,75.79
2018-09-25T06:48:42.509Z,76.29
2018-09-25T06:51:48.442Z,76.46
2018-09-25T06:54:55.354Z,76.20
2018-09-25T06:58:01.479Z,76.35
2018-09-25T07:01:13.441Z,75.93
2018-09-25T07:04:19.092Z,75.81
2018-09-25T07:10:49.965Z,75.10
2018-09-25T07:13:56.579Z,71.13
2018-09-25T07:20:31.100Z,73.30
2018-09-25T07:23:37.030Z,73.38
2018-09-25T07:26:42.503Z,73.15
2018-09-25T07:29:49.544Z,73.00
2018-09-25T07:32:55.708Z,72.59
2018-09-25T07:36:02.330Z,72.22
2018-09-25T07:39:12.738Z,71.84
2018-09-25T07:42:20.044Z,71.59
2018-09-25T07:45:33.524Z,71.77
2018-09-25T07:48:43.010Z,71.19
2018-09-25T07:55:22.066Z,70.66
2018-09-25T07:58:43.519Z,64.47
2018-09-25T08:02:04.097Z,66.56
2018-09-25T08:05:09.438Z,67.93
2018-09-25T08:08:23.503Z,68.40
2018-09-25T08:11:30.184Z,68.58
2018-09-25T08:14:46.312Z,68.60
2018-09-25T08:18:11.241Z,67.55
2018-09-25T08:21:17.284Z,66.83
2018-09-25T08:24:23.914Z,66.35
2018-09-25T08:27:29.237Z,66.08
2018-09-25T08:34:01.195Z,66.29
2018-09-25T08:37:06.932Z,65.14
2018-09-25T08:40:12.347Z,65.04
2018-09-25T08:43:18.635Z,65.11
2018-09-25T08:46:24.810Z,64.34
2018-09-25T08:49:30.414Z,64.32
2018-09-25T08:52:38.255Z,57.64
2018-09-25T08:55:58.927Z,60.72
2018-09-25T08:59:06.652Z,60.84
2018-09-25T09:09:00.966Z,61.06
2018-09-25T09:12:07.317Z,61.06
2018-09-25T09:18:39.596Z,59.82
2018-09-25T09:21:45.220Z,52.61
2018-09-25T09:24:52.252Z,51.11
2018-09-25T09:27:58.815Z,55.28
2018-09-25T09:34:37.012Z,56.58
2018-09-25T09:37:44.402Z,50.53
2018-09-25T09:40:50.666Z,54.96
2018-09-25T09:43:57.430Z,55.29
2018-09-25T09:47:14.212Z,55.28
2018-09-25T09:50:26.006Z,53.75
2018-09-25T09:53:47.477Z,54.30
2018-09-25T09:56:55.645Z,55.49
2018-09-25T10:00:01.228Z,48.59
2018-09-25T10:03:08.133Z,46.86
2018-09-25T10:06:16.057Z,51.01
2018-09-25T10:09:23.457Z,51.36
2018-09-25T10:12:29.831Z,52.88
2018-09-25T10:15:38.479Z,52.68
2018-09-25T10:18:44.700Z,52.83
2018-09-25T10:21:50.671Z,52.53
2018-09-25T10:24:57.421Z,46.33
2018-09-25T10:28:03.443Z,49.31
2018-09-25T10:31:09.574Z,51.33
2018-09-25T10:34:15.422Z,52.33
2018-09-25T10:40:57.545Z,51.09
2018-09-25T10:44:03.166Z,51.01
2018-09-25T10:47:10.179Z,51.25
2018-09-25T10:50:16.183Z,52.53
2018-09-25T10:56:48.065Z,50.05
2018-09-25T10:59:56.248Z,51.32
2018-09-25T11:03:03.371Z,50.70
2018-09-25T11:06:15.694Z,51.91
2018-09-25T11:12:47.411Z,52.28
2018-09-25T11:15:54.475Z,46.75
2018-09-25T11:19:05.777Z,50.06
2018-09-25T11:22:12.518Z,49.99
2018-09-25T11:25:18.839Z,45.03
2018-09-25T11:28:26.070Z,42.56
2018-09-25T11:31:34.269Z,48.37
2018-09-25T11:34:40.888Z,48.72
2018-09-25T11:37:48.728Z,49.37
2018-09-25T11:40:55.714Z,49.73
2018-09-25T11:44:05.072Z,48.15
2018-09-25T11:47:11.077Z,47.91
2018-09-25T11:50:30.644Z,48.72
2018-09-25T11:53:36.909Z,49.86
2018-09-25T11:56:45.085Z,45.23
2018-09-25T11:59:52.462Z,49.47
2018-09-25T12:02:58.464Z,49.30
2018-09-25T12:06:08.498Z,49.97
2018-09-25T12:09:16.243Z,50.39
2018-09-25T12:12:29.843Z,50.15
2018-09-25T12:15:40.858Z,50.27
2018-09-25T12:18:47.952Z,49.48
2018-09-25T12:21:55.098Z,49.10
2018-09-25T12:25:02.001Z,49.19
2018-09-25T12:28:07.922Z,47.63
2018-09-25T12:31:20.429Z,48.43
2018-09-25T12:34:32.550Z,48.08
2018-09-25T12:41:06.488Z,48.97
2018-09-25T12:44:14.918Z,48.13
2018-09-25T12:47:26.979Z,47.62
2018-09-25T12:54:00.132Z,46.57
2018-09-25T12:57:07.153Z,46.05
2018-09-25T13:13:56.376Z,43.17
2018-09-25T13:17:04.972Z,43.60
2018-09-25T13:20:14.479Z,45.43
2018-09-25T13:23:21.298Z,45.58
2018-09-25T13:33:22.834Z,44.07
2018-09-25T13:36:35.417Z,44.60
2018-09-25T14:10:36.879Z,44.23
2018-09-25T14:17:13.349Z,42.95
2018-09-25T14:20:19.217Z,43.46
2018-09-25T14:23:26.197Z,43.28
2018-09-25T14:26:34.253Z,42.34
2018-09-25T14:29:40.609Z,43.34
2018-09-25T14:39:38.972Z,44.44
2018-09-25T14:42:46.264Z,44.58
2018-09-25T14:45:53.363Z,44.58
2018-09-25T14:52:26.443Z,44.11
2018-09-25T14:55:31.730Z,43.47
2018-09-25T14:58:40.294Z,42.64
2018-09-25T15:01:44.884Z,39.04
2018-09-25T15:04:53.468Z,41.97
2018-09-25T15:07:59.820Z,43.57
2018-09-25T15:11:05.845Z,43.83
2018-09-25T15:14:13.758Z,43.83
2018-09-25T15:17:19.756Z,44.28
2018-09-25T15:20:25.600Z,40.20
2018-09-25T15:23:31.515Z,43.23
2018-09-25T15:26:38.320Z,43.83
2018-09-25T15:29:45.913Z,44.47
2018-09-25T15:32:55.638Z,44.18
2018-09-25T15:39:30.631Z,44.62
2018-09-25T15:53:09.147Z,44.94
2018-09-25T15:56:23.849Z,44.83
2018-09-25T16:02:54.044Z,43.80
2018-09-25T16:06:02.136Z,44.54
2018-09-25T16:12:34.462Z,46.36
2018-09-25T16:15:43.185Z,46.19
2018-09-25T16:18:49.074Z,46.36
2018-09-25T16:21:59.159Z,46.62
2018-09-25T16:35:18.212Z,49.59
2018-09-25T16:45:13.984Z,51.02
2018-09-25T16:51:47.639Z,52.20
2018-09-25T17:01:57.746Z,53.55
2018-09-25T17:08:28.387Z,53.66
2018-09-25T17:11:41.980Z,54.19
2018-09-25T17:14:48.930Z,55.02
2018-09-25T17:17:54.302Z,55.17
2018-09-25T17:21:01.065Z,55.15
2018-09-25T17:24:06.713Z,55.98
2018-09-25T17:30:37.696Z,57.14
2018-09-25T17:37:08.820Z,55.71
2018-09-25T17:40:14.745Z,57.83
2018-09-25T17:43:21.676Z,57.70
2018-09-25T17:46:43.961Z,58.25
2018-09-25T17:49:50.007Z,59.31
2018-09-25T17:56:21.927Z,59.71
2018-09-25T17:59:27.265Z,59.85
2018-09-25T18:02:33.800Z,59.01
2018-09-25T18:05:39.248Z,60.75
2018-09-25T18:08:45.897Z,61.93
2018-09-25T18:15:16.528Z,62.21
2018-09-25T18:18:22.713Z,62.31
2018-09-25T18:25:08.885Z,62.82
2018-09-25T18:28:19.458Z,63.26
2018-09-25T18:31:27.348Z,63.46
2018-09-25T18:34:33.357Z,63.49
2018-09-25T18:37:39.662Z,63.39
2018-09-25T18:40:46.287Z,63.63
2018-09-25T18:47:18.031Z,64.23
2018-09-25T18:53:50.189Z,65.21
2018-09-25T19:03:25.531Z,65.49
2018-09-25T19:06:15.745Z,66.18
2018-09-25T19:19:26.859Z,67.21
2018-09-25T19:35:59.572Z,66.00
2018-09-25T19:41:55.582Z,68.39
2018-09-25T20:14:53.946Z,70.16
2018-09-25T20:35:27.775Z,71.05
2018-09-25T20:38:33.967Z,71.49
2018-09-25T20:41:39.394Z,71.65
2018-09-25T20:58:25.167Z,72.13
2018-09-25T21:08:21.730Z,72.10
2018-09-25T21:31:57.242Z,73.40
2018-09-25T22:19:31.732Z,74.97
2018-09-25T22:46:29.931Z,73.71
2018-09-25T22:59:51.633Z,75.92
2018-09-25T23:02:57.228Z,75.82
2018-09-25T23:06:03.106Z,75.82
2018-09-25T23:15:58.529Z,76.44
2018-09-25T23:29:22.794Z,77.17
2018-09-25T23:35:55.564Z,76.67
2018-09-25T23:45:27.691Z,77.15
2018-09-25T23:48:16.709Z,77.49
